General Aviation Weather

Text Reports

Enter one or more of the following location identifiers separated by a space:

Zip Code, Four-Character ICAO or Three-Character IATA airport codes.

METAR - Aviation Routine Weather Report
KHWY - Warrenton, Virginia
Updated at 9:35 PM GMT on October 01, 2014 (5:35 PM EDT):
METAR KHWY 012135Z AUTO 04004KT 10SM SCT023 SCT030 SCT037 22/19 A3001 RMK AO2 T02190192
TAF - Terminal Area Forecast
KHWY - Warrenton, Virginia
Updated at 9:35 PM GMT on October 01, 2014 (5:35 PM EDT):
No TAF is currently available for this location.
Decoded:
No decoded TAF is available.
PIREP - Pilot Weather Report
KHWY - Warrenton, Virginia
Updated at 9:35 PM GMT on October 01, 2014 (5:35 PM EDT):
No PIREP is currently available for this location.
AIRMET - Airmens Meteorological Information
KHWY - Warrenton, Virginia
Updated at 9:35 PM GMT on October 01, 2014 (5:35 PM EDT):
No AIRMET is currently available for this location.
SIGMET - Significant Meteorological Information
KHWY - Warrenton, Virginia
Updated at 9:35 PM GMT on October 01, 2014 (5:35 PM EDT):
No SIGMET is currently available for this location.
NOTAM - Notice to Airmen
KHWY - Warrenton, Virginia
Updated at 9:35 PM GMT on October 01, 2014 (5:35 PM EDT):
No NOTAM is currently available for this location.
Forecast Area
KHWY - Warrenton, Virginia
Updated at 9:35 PM GMT on October 01, 2014 (5:35 PM EDT):
No NOTAM is currently available for this location.
Aviation Weather Maps